createdAt,value
2022-12-15T00:01:36.490Z,114.16575
2022-12-15T00:06:38.406Z,113.23077
2022-12-15T00:11:40.088Z,112.30601
2022-12-15T00:16:41.547Z,112.30601
2022-12-15T00:21:43.163Z,111.3913
2022-12-15T00:26:44.676Z,111.84741
2022-12-15T00:31:46.244Z,114.63712
2022-12-15T00:36:49.921Z,112.30601
2022-12-15T00:41:51.664Z,113.69697
2022-12-15T00:46:53.296Z,110.03774
2022-12-15T00:51:55.284Z,110.03774
2022-12-15T00:56:56.728Z,110.03774
2022-12-15T01:01:58.582Z,111.3913
2022-12-15T01:07:00.748Z,110.03774
2022-12-15T01:12:02.465Z,112.30601
2022-12-15T01:17:04.894Z,113.23077
2022-12-15T01:22:06.626Z,116.54902
2022-12-15T01:27:08.384Z,118.50425
2022-12-15T01:32:10.087Z,117.52113
2022-12-15T01:37:12.007Z,114.63712
2022-12-15T01:42:13.810Z,112.30601
2022-12-15T01:47:15.724Z,115.58774
2022-12-15T01:52:17.552Z,117.03371
2022-12-15T01:57:19.366Z,113.69697
2022-12-15T02:02:21.241Z,112.76712
2022-12-15T02:07:23.288Z,111.84741
2022-12-15T02:12:24.866Z,118.0113
2022-12-15T02:17:26.618Z,120.5043
2022-12-15T02:22:28.848Z,117.03371
2022-12-15T02:27:30.902Z,115.58774
2022-12-15T02:32:32.707Z,116.54902
2022-12-15T02:37:34.795Z,124.64516
2022-12-15T02:42:36.610Z,125.17647
2022-12-15T02:47:38.379Z,117.03371
2022-12-15T02:52:39.882Z,114.63712
2022-12-15T02:57:41.393Z,114.16575
2022-12-15T03:02:43.082Z,116.06704
2022-12-15T03:07:45.134Z,111.84741
2022-12-15T03:12:51.672Z,105.67979
2022-12-15T03:17:53.528Z,105.67979
2022-12-15T03:22:55.302Z,110.03774
2022-12-15T03:27:57.037Z,123.06977
2022-12-15T03:32:59.082Z,120
2022-12-15T03:38:01.285Z,120
2022-12-15T03:43:03.050Z,121.01149
2022-12-15T03:48:04.831Z,113.23077
2022-12-15T03:53:06.570Z,115.58774
2022-12-15T03:58:08.064Z,110.03774
2022-12-15T04:03:09.756Z,102.35476
2022-12-15T04:08:11.582Z,97.61596
2022-12-15T04:13:13.223Z,97.61596
2022-12-15T04:18:14.723Z,104
2022-12-15T04:23:16.187Z,113.69697
2022-12-15T04:28:17.709Z,111.84741
2022-12-15T04:33:19.360Z,106.96296
2022-12-15T04:38:21.165Z,122.03468
2022-12-15T04:43:22.687Z,109.14745
2022-12-15T04:48:24.268Z,107.82979
2022-12-15T04:53:25.847Z,106.10526
2022-12-15T04:58:27.546Z,125.17647
2022-12-15T05:03:29.092Z,122.03468
2022-12-15T05:08:30.763Z,127.8806
2022-12-15T05:13:32.688Z,122.55072
2022-12-15T05:18:34.508Z,119.49858
2022-12-15T05:23:36.008Z,120
2022-12-15T05:28:37.560Z,131.80488
2022-12-15T05:33:39.186Z,139.55556
2022-12-15T05:38:40.976Z,154.23891
2022-12-15T05:43:42.504Z,146.63158
2022-12-15T05:48:44.067Z,135.90031
2022-12-15T05:53:45.717Z,141.4359
2022-12-15T05:58:47.499Z,147.30033
2022-12-15T06:03:48.955Z,155.68385
2022-12-15T06:08:51.140Z,158.63415
2022-12-15T06:13:53.098Z,152.81356
2022-12-15T06:18:54.878Z,176.45283
2022-12-15T06:23:56.467Z,152.10811
2022-12-15T06:28:58.006Z,155.68385
2022-12-15T06:34:01.695Z,172.14815
2022-12-15T06:39:04.326Z,160.14035
2022-12-15T06:44:05.854Z,175.57895
2022-12-15T06:49:07.323Z,168
2022-12-15T06:54:09.026Z,171.30627
2022-12-15T06:59:10.504Z,171.30627
2022-12-15T07:04:12.460Z,187.47826
2022-12-15T07:09:14.384Z,167.18841
2022-12-15T07:14:16.271Z,191.38956
2022-12-15T07:19:18.042Z,198.54545
2022-12-15T07:24:19.865Z,208.37768
2022-12-15T07:29:23.733Z,244.4878
2022-12-15T07:34:25.613Z,268.21053
2022-12-15T07:39:27.530Z,278.78261
2022-12-15T07:44:29.318Z,296
2022-12-15T07:49:31.053Z,308.49704
2022-12-15T07:54:32.852Z,273.41176
2022-12-15T07:59:34.602Z,324.24691
2022-12-15T08:04:36.478Z,326.6087
2022-12-15T08:09:38.588Z,326.6087
2022-12-15T08:14:40.333Z,306.35294
2022-12-15T08:19:41.888Z,315.08434
2022-12-15T08:24:43.364Z,354.66667
2022-12-15T08:29:52.186Z,365.91781
2022-12-15T08:34:54.262Z,357.42282
2022-12-15T08:39:55.960Z,377.80282
2022-12-15T08:44:57.524Z,417.84615
2022-12-15T08:49:59.243Z,457.33333
2022-12-15T08:55:01.273Z,341.41935
2022-12-15T09:00:03.069Z,351.94702
2022-12-15T09:05:04.915Z,371.77778
2022-12-15T09:10:06.864Z,384
2022-12-15T09:15:08.648Z,363.04762
2022-12-15T09:20:12.259Z,448.91803
2022-12-15T09:25:17.260Z,374.76923
2022-12-15T09:30:19.084Z,360.21622
2022-12-15T09:35:20.853Z,354.66667
2022-12-15T09:40:22.753Z,363.04762
2022-12-15T09:45:24.633Z,371.77778
2022-12-15T09:50:26.507Z,338.87179
2022-12-15T09:55:28.314Z,331.42138
2022-12-15T10:00:30.274Z,321.91411
2022-12-15T10:05:57.349Z,304.23392
2022-12-15T10:11:08.304Z,286.22222
2022-12-15T10:16:09.840Z,282.46154
2022-12-15T10:21:11.607Z,275.1828
2022-12-15T10:26:13.442Z,276.97297
2022-12-15T10:31:15.440Z,266.51309
2022-12-15T10:36:17.393Z,255.11111
2022-12-15T10:41:19.377Z,280.61202
2022-12-15T10:46:21.469Z,290.06742
2022-12-15T10:51:23.304Z,304.23392
2022-12-15T10:56:32.283Z,333.87342
2022-12-15T11:01:35.526Z,326.6087
2022-12-15T11:06:37.646Z,371.77778
2022-12-15T11:11:45.121Z,329
2022-12-15T11:16:46.975Z,315.08434
2022-12-15T11:21:50.435Z,333.87342
2022-12-15T11:26:52.131Z,308.49704
2022-12-15T11:31:53.825Z,317.33333
2022-12-15T11:36:55.405Z,363.04762
2022-12-15T11:41:57.336Z,294
2022-12-15T11:46:59.231Z,374.76923
2022-12-15T11:52:01.028Z,333.87342
2022-12-15T11:57:02.981Z,341.41935
2022-12-15T12:02:04.725Z,384
2022-12-15T12:07:06.519Z,396.94118
2022-12-15T12:12:08.835Z,346.61438
2022-12-15T12:17:10.743Z,326.6087
2022-12-15T12:22:12.463Z,329
2022-12-15T12:27:14.355Z,336.35669
2022-12-15T12:32:16.063Z,294
2022-12-15T12:37:17.876Z,349.26316
2022-12-15T12:42:19.969Z,302.13953
2022-12-15T12:47:21.612Z,286.22222
2022-12-15T12:52:23.356Z,292.0226
2022-12-15T12:57:25.058Z,284.33149
2022-12-15T13:02:26.992Z,288.13408
2022-12-15T13:07:29.016Z,282.46154
2022-12-15T13:12:50.815Z,321.91411
2022-12-15T13:17:53.270Z,312.86228
2022-12-15T13:22:54.885Z,268.21053
2022-12-15T13:27:56.460Z,226.56881
2022-12-15T13:32:58.944Z,271.65957
2022-12-15T13:38:00.791Z,261.52577
2022-12-15T13:43:03.040Z,238.73684
2022-12-15T13:48:04.865Z,271.65957
2022-12-15T15:03:10.458Z,266.51309
2022-12-15T15:08:17.705Z,271.65957
2022-12-15T15:13:19.461Z,273.41176
2022-12-15T15:18:21.397Z,261.52577
2022-12-15T15:23:23.039Z,253.54774
2022-12-15T15:28:25.103Z,245.96078
2022-12-15T15:33:27.247Z,243.02913
2022-12-15T15:38:29.428Z,240.15385
2022-12-15T15:43:31.448Z,263.17098
2022-12-15T15:48:33.753Z,294
2022-12-15T15:53:36.125Z,271.65957
2022-12-15T15:58:37.893Z,255.11111
2022-12-15T16:03:39.868Z,271.65957
2022-12-15T16:08:42.000Z,248.9505
2022-12-15T16:13:43.561Z,245.96078
2022-12-15T16:18:45.067Z,252
2022-12-15T16:23:46.550Z,255.11111
2022-12-15T16:28:48.013Z,241.58454
2022-12-15T16:33:49.625Z,252
2022-12-15T16:38:51.653Z,271.65957
2022-12-15T16:43:53.645Z,258.28571
2022-12-15T16:48:55.513Z,259.89744
2022-12-15T16:53:57.194Z,225.27854
2022-12-15T16:59:30.765Z,209.51724
2022-12-15T17:04:34.078Z,220.23318
2022-12-15T17:09:36.438Z,264.83333
2022-12-15T17:14:38.378Z,221.47748
2022-12-15T17:19:52.603Z,190.4
2022-12-15T17:25:07.338Z,205.01695
2022-12-15T17:30:09.202Z,209.51724
2022-12-15T17:35:10.670Z,191.38956
2022-12-15T17:40:12.451Z,190.4
2022-12-15T17:45:14.223Z,171.30627
2022-12-15T17:50:15.714Z,156.41379
2022-12-15T17:55:17.511Z,160.14035
2022-12-15T18:00:19.021Z,147.30033
2022-12-15T18:05:20.704Z,142.07074
2022-12-15T18:10:22.712Z,145.96721
2022-12-15T18:15:24.213Z,164.78853
2022-12-15T18:20:25.880Z,154.9589
2022-12-15T18:25:27.319Z,151.40741
2022-12-15T18:30:29.343Z,147.97351
2022-12-15T18:35:31.102Z,138.93671
2022-12-15T18:40:32.864Z,138.93671
2022-12-15T18:45:34.664Z,131.23404
2022-12-15T18:50:36.261Z,127.33333
2022-12-15T18:55:37.956Z,127.8806
2022-12-15T19:00:39.506Z,127.8806
2022-12-15T19:05:41.212Z,137.10345
2022-12-15T19:10:43.080Z,135.90031
2022-12-15T19:15:44.630Z,136.5
2022-12-15T19:20:46.077Z,135.30435
2022-12-15T19:25:47.757Z,132.3792
2022-12-15T19:30:49.327Z,126.78932
2022-12-15T19:35:51.192Z,123.06977
2022-12-15T19:40:53.016Z,126.78932
2022-12-15T19:45:54.874Z,118.50425
2022-12-15T19:50:56.544Z,123.06977
2022-12-15T19:55:58.294Z,117.52113
2022-12-15T20:00:59.864Z,114.16575
2022-12-15T20:06:01.421Z,126.78932
2022-12-15T20:11:03.650Z,127.33333
2022-12-15T20:16:05.325Z,126.24852
2022-12-15T20:21:06.842Z,128.43114
2022-12-15T20:26:08.409Z,130.66667
2022-12-15T20:31:09.881Z,130.10272
2022-12-15T20:36:11.301Z,134.12346
2022-12-15T20:41:13.069Z,134.71207
2022-12-15T20:46:14.584Z,145.96721
2022-12-15T20:51:16.020Z,143.35275
2022-12-15T20:56:17.510Z,142.70968
2022-12-15T21:01:19.378Z,136.5
2022-12-15T21:06:21.357Z,135.30435
2022-12-15T21:11:23.570Z,132.95706
2022-12-15T21:16:25.440Z,127.33333
2022-12-15T21:21:27.441Z,127.33333
2022-12-15T21:26:29.526Z,125.17647
2022-12-15T21:31:31.443Z,122.03468
2022-12-15T21:36:33.445Z,118.50425
2022-12-15T21:41:35.498Z,119
2022-12-15T21:46:37.391Z,117.03371
2022-12-15T21:51:39.316Z,114.63712
2022-12-15T21:56:41.425Z,118.50425
2022-12-15T22:01:43.383Z,121.52161
2022-12-15T22:06:50.089Z,125.17647
2022-12-15T22:11:52.802Z,134.71207
2022-12-15T22:16:54.250Z,140.80511
2022-12-15T22:21:56.374Z,144.65147
2022-12-15T22:26:57.841Z,145.96721
2022-12-15T22:31:59.545Z,155.68385
2022-12-15T22:37:01.039Z,158.63415
2022-12-15T22:42:02.889Z,159.38462
2022-12-15T22:47:04.358Z,161.66784
2022-12-15T22:52:05.827Z,160.14035
2022-12-15T22:57:07.532Z,156.41379
2022-12-15T23:02:09.288Z,160.90141
2022-12-15T23:07:10.894Z,154.23891
2022-12-15T23:12:12.941Z,152.10811
2022-12-15T23:17:14.376Z,150.71141
2022-12-15T23:22:15.866Z,152.81356
2022-12-15T23:27:17.511Z,152.81356
2022-12-15T23:32:18.983Z,147.30033
2022-12-15T23:37:20.531Z,154.9589
2022-12-15T23:42:22.581Z,150.02007
2022-12-15T23:47:24.274Z,154.23891
2022-12-15T23:52:25.903Z,147.97351
2022-12-15T23:57:27.562Z,147.97351
